createdAt,value
2022-08-01T00:01:59.179Z,19.23
2022-08-01T00:05:03.146Z,19.25
2022-08-01T00:08:06.187Z,19.29
2022-08-01T00:11:10.168Z,19.35
2022-08-01T00:14:12.797Z,19.35
2022-08-01T00:17:15.305Z,19.39
2022-08-01T00:20:19.257Z,19.49
2022-08-01T00:23:21.753Z,19.57
2022-08-01T00:26:24.278Z,19.65
2022-08-01T00:30:09.829Z,19.71
2022-08-01T00:32:49.295Z,19.71
2022-08-01T00:35:53.846Z,19.71
2022-08-01T00:38:56.432Z,19.73
2022-08-01T00:41:59.429Z,19.63
2022-08-01T00:45:02.663Z,19.57
2022-08-01T00:48:05.783Z,19.60
2022-08-01T00:51:10.416Z,19.60
2022-08-01T00:54:13.287Z,19.62
2022-08-01T00:58:02.654Z,19.57
2022-08-01T01:00:54.055Z,19.52
2022-08-01T01:03:58.985Z,19.54
2022-08-01T01:07:11.559Z,19.61
2022-08-01T01:10:19.879Z,19.60
2022-08-01T01:13:30.634Z,19.58
2022-08-01T01:16:35.611Z,19.63
2022-08-01T01:19:43.546Z,19.64
2022-08-01T01:23:00.305Z,19.65
2022-08-01T01:26:17.867Z,19.68
2022-08-01T01:29:25.913Z,19.67
2022-08-01T01:32:34.639Z,19.67
2022-08-01T01:35:44.007Z,19.63
2022-08-01T01:38:48.743Z,19.61
2022-08-01T01:41:52.563Z,19.59
2022-08-01T01:44:56.731Z,19.56
2022-08-01T01:48:01.011Z,19.43
2022-08-01T01:51:05.285Z,19.39
2022-08-01T01:54:10.406Z,19.35
2022-08-01T01:57:14.334Z,19.28
2022-08-01T02:00:19.353Z,19.25
2022-08-01T02:03:23.258Z,19.19
2022-08-01T02:06:28.631Z,19.18
2022-08-01T02:09:33.046Z,19.22
2022-08-01T02:12:39.803Z,19.22
2022-08-01T02:15:59.913Z,19.22
2022-08-01T02:19:03.732Z,19.12
2022-08-01T02:22:11.909Z,19.04
2022-08-01T02:25:22.642Z,18.89
2022-08-01T02:28:30.581Z,18.82
2022-08-01T02:31:40.222Z,18.79
2022-08-01T02:34:45.480Z,18.64
2022-08-01T02:37:50.435Z,18.48
2022-08-01T02:40:54.814Z,18.41
2022-08-01T02:44:02.845Z,18.28
2022-08-01T02:47:07.321Z,18.16
2022-08-01T02:50:14.255Z,18.05
2022-08-01T02:53:20.354Z,17.93
2022-08-01T02:56:24.798Z,17.83
2022-08-01T02:59:30.709Z,17.84
2022-08-01T03:02:36.795Z,17.86
2022-08-01T03:05:41.000Z,17.88
2022-08-01T03:08:45.670Z,17.89
2022-08-01T03:11:50.004Z,17.88
2022-08-01T03:14:55.487Z,17.84
2022-08-01T03:18:01.908Z,17.80
2022-08-01T03:21:06.005Z,17.76
2022-08-01T03:24:10.796Z,17.77
2022-08-01T03:27:14.353Z,17.74
2022-08-01T03:30:17.230Z,17.76
2022-08-01T03:33:21.096Z,17.82
2022-08-01T03:36:29.573Z,17.89
2022-08-01T03:39:35.678Z,17.96
2022-08-01T03:42:46.703Z,18.01
2022-08-01T03:45:52.535Z,18.05
2022-08-01T03:49:00.987Z,18.05
2022-08-01T03:52:06.324Z,18.13
2022-08-01T03:55:10.374Z,18.21
2022-08-01T03:58:14.930Z,18.30
2022-08-01T04:01:18.777Z,18.35
2022-08-01T04:04:23.102Z,18.44
2022-08-01T04:07:27.584Z,18.52
2022-08-01T04:10:30.446Z,18.63
2022-08-01T04:13:36.856Z,18.72
2022-08-01T04:16:40.253Z,18.80
2022-08-01T04:19:45.727Z,18.92
2022-08-01T04:22:48.332Z,18.98
2022-08-01T04:25:52.784Z,19.10
2022-08-01T04:28:56.965Z,19.12
2022-08-01T04:32:01.884Z,19.07
2022-08-01T04:35:22.931Z,19.17
2022-08-01T04:38:37.721Z,19.28
2022-08-01T04:41:41.796Z,19.99
2022-08-01T04:44:44.422Z,19.88
2022-08-01T04:47:48.747Z,19.66
2022-08-01T04:50:52.923Z,19.49
2022-08-01T04:53:55.621Z,19.33
2022-08-01T04:57:00.908Z,19.33
2022-08-01T05:00:03.619Z,19.32
2022-08-01T05:03:06.350Z,19.54
2022-08-01T05:06:10.154Z,19.64
2022-08-01T05:09:12.638Z,19.80
2022-08-01T05:12:15.280Z,19.81
2022-08-01T05:15:17.750Z,19.90
2022-08-01T05:18:27.906Z,19.91
2022-08-01T05:21:32.402Z,20.11
2022-08-01T05:24:36.673Z,20.28
2022-08-01T05:27:40.572Z,20.34
2022-08-01T05:30:43.235Z,20.30
2022-08-01T05:33:45.783Z,20.28
2022-08-01T05:36:56.787Z,20.31
2022-08-01T05:40:00.583Z,20.45
2022-08-01T05:43:03.091Z,20.56
2022-08-01T05:46:05.574Z,20.84
2022-08-01T05:49:08.285Z,21.00
2022-08-01T05:52:12.720Z,21.19
2022-08-01T05:55:15.323Z,21.26
2022-08-01T05:58:17.857Z,21.20
2022-08-01T06:01:20.993Z,20.92
2022-08-01T06:04:23.598Z,20.76
2022-08-01T06:07:27.495Z,20.52
2022-08-01T06:10:29.974Z,20.59
2022-08-01T06:13:33.511Z,20.68
2022-08-01T06:16:49.561Z,20.59
2022-08-01T06:19:52.055Z,20.51
2022-08-01T06:22:56.463Z,20.44
2022-08-01T06:26:02.389Z,20.33
2022-08-01T06:29:05.011Z,20.13
2022-08-01T06:32:08.848Z,20.24
2022-08-01T06:35:11.518Z,20.28
2022-08-01T06:38:15.382Z,20.44
2022-08-01T06:41:17.837Z,20.48
2022-08-01T06:44:20.360Z,20.61
2022-08-01T06:47:22.842Z,20.56
2022-08-01T06:50:25.325Z,20.51
2022-08-01T06:53:32.603Z,20.30
2022-08-01T06:56:37.434Z,20.24
2022-08-01T06:59:39.991Z,20.35
2022-08-01T07:02:56.214Z,20.85
2022-08-01T07:05:58.692Z,21.02
2022-08-01T07:09:08.415Z,21.05
2022-08-01T07:12:14.737Z,21.62
2022-08-01T07:15:17.533Z,23.05
2022-08-01T07:18:20.117Z,24.60
2022-08-01T07:21:39.242Z,26.13
2022-08-01T07:24:45.864Z,26.35
2022-08-01T07:27:48.582Z,26.14
2022-08-01T07:30:51.027Z,24.51
2022-08-01T07:33:53.526Z,24.40
2022-08-01T07:36:56.102Z,23.88
2022-08-01T07:39:59.912Z,23.49
2022-08-01T07:43:02.433Z,23.38
2022-08-01T07:46:05.337Z,23.33
2022-08-01T07:49:08.013Z,23.48
2022-08-01T07:52:10.800Z,22.93
2022-08-01T07:55:16.565Z,22.79
2022-08-01T07:58:19.531Z,22.54
2022-08-01T08:01:22.064Z,22.10
2022-08-01T08:04:24.608Z,21.78
2022-08-01T08:07:27.185Z,21.71
2022-08-01T08:10:30.979Z,21.61
2022-08-01T08:13:33.509Z,21.76
2022-08-01T08:16:36.084Z,21.99
2022-08-01T08:19:40.110Z,21.92
2022-08-01T08:22:42.739Z,22.11
2022-08-01T08:25:46.544Z,22.38
2022-08-01T08:28:49.138Z,22.37
2022-08-01T08:32:03.839Z,22.30
2022-08-01T08:35:08.131Z,22.58
2022-08-01T08:38:14.709Z,22.89
2022-08-01T08:41:21.291Z,23.38
2022-08-01T08:44:24.387Z,23.77
2022-08-01T08:47:27.541Z,23.94
2022-08-01T08:50:30.591Z,23.43
2022-08-01T08:53:35.860Z,23.51
2022-08-01T08:56:40.247Z,23.75
2022-08-01T08:59:45.300Z,23.79
2022-08-01T09:02:50.110Z,23.97
2022-08-01T09:05:52.781Z,24.17
2022-08-01T09:08:55.374Z,24.32
2022-08-01T09:11:59.394Z,24.32
2022-08-01T09:15:01.869Z,24.12
2022-08-01T09:18:04.416Z,23.84
2022-08-01T09:21:17.165Z,23.80
2022-08-01T09:24:30.328Z,23.67
2022-08-01T09:27:36.186Z,23.52
2022-08-01T09:30:40.816Z,23.34
2022-08-01T09:33:55.323Z,22.86
2022-08-01T09:37:03.355Z,22.52
2022-08-01T09:40:07.105Z,22.04
2022-08-01T09:43:15.063Z,21.87
2022-08-01T09:46:18.088Z,21.87
2022-08-01T09:49:51.828Z,21.84
2022-08-01T09:52:57.059Z,22.16
2022-08-01T09:56:11.664Z,22.66
2022-08-01T09:59:16.861Z,22.92
2022-08-01T10:02:31.369Z,22.54
2022-08-01T10:05:36.867Z,22.38
2022-08-01T10:08:47.825Z,22.24
2022-08-01T10:11:50.451Z,22.47
2022-08-01T10:14:56.335Z,23.12
2022-08-01T10:18:00.838Z,23.67
2022-08-01T10:21:08.615Z,24.15
2022-08-01T10:24:13.450Z,24.91
2022-08-01T10:27:24.731Z,25.47
2022-08-01T10:30:45.343Z,25.29
2022-08-01T10:33:51.697Z,24.97
2022-08-01T10:36:56.064Z,24.26
2022-08-01T10:40:27.118Z,22.77
2022-08-01T10:43:22.359Z,22.18
2022-08-01T10:46:26.823Z,22.14
2022-08-01T10:49:32.395Z,22.27
2022-08-01T10:52:39.250Z,22.71
2022-08-01T10:55:50.018Z,23.66
2022-08-01T10:59:06.811Z,24.10
2022-08-01T11:02:32.155Z,24.37
2022-08-01T11:05:36.591Z,24.75
2022-08-01T11:08:40.189Z,24.77
2022-08-01T11:12:00.983Z,24.39
2022-08-01T11:15:29.128Z,23.89
2022-08-01T11:18:37.607Z,23.38
2022-08-01T11:22:04.872Z,21.75
2022-08-01T11:25:07.793Z,20.82
2022-08-01T11:28:29.114Z,20.53
2022-08-01T11:31:37.869Z,20.51
2022-08-01T11:35:06.956Z,20.65
2022-08-01T11:38:29.270Z,21.10
2022-08-01T11:41:37.650Z,21.62
2022-08-01T11:44:51.064Z,22.25
2022-08-01T11:47:53.602Z,22.92
2022-08-01T11:51:02.024Z,23.63
2022-08-01T11:54:05.025Z,24.05
2022-08-01T11:57:10.451Z,24.28
2022-08-01T12:00:17.409Z,23.93
2022-08-01T12:03:33.576Z,23.07
2022-08-01T12:06:38.240Z,22.20
2022-08-01T12:09:44.332Z,21.01
2022-08-01T12:12:49.363Z,20.68
2022-08-01T12:15:56.552Z,20.58
2022-08-01T12:18:59.505Z,20.53
2022-08-01T12:22:14.928Z,20.74
2022-08-01T12:25:19.523Z,21.02
2022-08-01T12:28:22.414Z,21.49
2022-08-01T12:31:33.057Z,21.92
2022-08-01T12:34:36.021Z,22.16
2022-08-01T12:37:41.559Z,22.86
2022-08-01T12:40:46.120Z,23.11
2022-08-01T12:43:49.872Z,23.62
2022-08-01T12:46:52.643Z,23.92
2022-08-01T12:49:55.305Z,24.35
2022-08-01T12:52:59.948Z,25.05
2022-08-01T12:56:02.425Z,25.16
2022-08-01T12:59:25.843Z,25.30
2022-08-01T13:02:33.914Z,25.00
2022-08-01T13:05:44.090Z,24.92
2022-08-01T13:08:47.973Z,23.65
2022-08-01T13:11:58.911Z,22.84
2022-08-01T13:15:28.862Z,22.89
2022-08-01T13:18:33.341Z,23.00
2022-08-01T13:21:54.281Z,23.33
2022-08-01T13:25:14.400Z,23.64
2022-08-01T13:28:21.876Z,23.66
2022-08-01T13:31:34.388Z,23.91
2022-08-01T13:34:36.931Z,23.97
2022-08-01T13:37:40.522Z,23.61
2022-08-01T13:40:44.376Z,23.23
2022-08-01T13:43:58.564Z,23.05
2022-08-01T13:47:01.927Z,22.38
2022-08-01T13:50:14.174Z,22.30
2022-08-01T13:53:16.651Z,22.11
2022-08-01T13:56:21.058Z,22.31
2022-08-01T13:59:23.551Z,22.37
2022-08-01T14:02:26.018Z,22.89
2022-08-01T14:05:28.622Z,22.91
2022-08-01T14:08:31.205Z,23.32
2022-08-01T14:11:37.336Z,23.81
2022-08-01T14:14:40.370Z,24.07
2022-08-01T14:17:47.560Z,24.47
2022-08-01T14:20:50.752Z,25.01
2022-08-01T14:23:56.966Z,24.55
2022-08-01T14:27:00.818Z,24.23
2022-08-01T14:30:04.249Z,24.15
2022-08-01T14:33:06.912Z,24.06
2022-08-01T14:36:30.441Z,24.24
2022-08-01T14:39:31.915Z,23.87
2022-08-01T14:42:35.724Z,23.62
2022-08-01T14:45:38.201Z,23.60
2022-08-01T14:48:40.747Z,23.66
2022-08-01T14:51:43.250Z,23.57
2022-08-01T14:54:45.738Z,23.68
2022-08-01T14:57:49.528Z,23.69
2022-08-01T15:00:58.657Z,23.78
2022-08-01T15:04:01.823Z,23.63
2022-08-01T15:07:07.051Z,23.46
2022-08-01T15:10:10.333Z,23.81
2022-08-01T15:13:14.140Z,23.32
2022-08-01T15:16:16.601Z,23.38
2022-08-01T15:19:19.095Z,23.41
2022-08-01T15:22:23.247Z,23.75
2022-08-01T15:25:25.757Z,23.63
2022-08-01T15:28:44.535Z,23.79
2022-08-01T15:31:47.355Z,23.91
2022-08-01T15:34:49.866Z,24.36
2022-08-01T15:37:52.333Z,24.62
2022-08-01T15:40:54.824Z,24.73
2022-08-01T15:43:58.694Z,24.93
2022-08-01T15:47:01.846Z,24.88
2022-08-01T15:50:05.449Z,24.83
2022-08-01T15:53:08.479Z,24.60
2022-08-01T15:56:10.963Z,24.41
2022-08-01T15:59:15.119Z,24.59
2022-08-01T16:02:17.709Z,24.82
2022-08-01T16:05:20.750Z,25.09
2022-08-01T16:08:23.622Z,25.25
2022-08-01T16:11:27.733Z,25.14
2022-08-01T16:14:31.550Z,24.82
2022-08-01T16:17:35.276Z,24.06
2022-08-01T16:20:45.352Z,23.94
2022-08-01T16:23:48.166Z,24.10
2022-08-01T16:26:50.857Z,23.80
2022-08-01T16:29:54.659Z,23.91
2022-08-01T16:33:03.937Z,23.62
2022-08-01T16:36:16.688Z,23.59
2022-08-01T16:39:23.220Z,23.32
2022-08-01T16:42:27.706Z,23.14
2022-08-01T16:45:32.390Z,22.92
2022-08-01T16:48:34.888Z,23.20
2022-08-01T16:51:47.864Z,23.39
2022-08-01T16:54:50.938Z,23.22
2022-08-01T16:57:53.431Z,23.22
2022-08-01T17:01:57.815Z,23.06
2022-08-01T17:04:20.025Z,22.90
2022-08-01T17:07:22.491Z,23.02
2022-08-01T17:10:25.867Z,23.10
2022-08-01T17:13:28.382Z,23.02
2022-08-01T17:16:32.606Z,22.97
2022-08-01T17:19:35.139Z,23.01
2022-08-01T17:22:37.609Z,23.00
2022-08-01T17:25:40.073Z,23.00
2022-08-01T17:28:42.907Z,23.02
2022-08-01T17:31:46.817Z,22.93
2022-08-01T17:34:50.038Z,22.71
2022-08-01T17:37:52.546Z,22.63
2022-08-01T17:40:55.058Z,22.49
2022-08-01T17:43:57.867Z,22.56
2022-08-01T17:47:01.666Z,22.54
2022-08-01T17:50:06.448Z,22.47
2022-08-01T17:53:08.955Z,22.42
2022-08-01T17:56:11.433Z,22.27
2022-08-01T17:59:13.962Z,22.18
2022-08-01T18:02:17.859Z,22.11
2022-08-01T18:05:20.665Z,22.06
2022-08-01T18:08:41.061Z,21.98
2022-08-01T18:11:43.556Z,21.90
2022-08-01T18:14:46.647Z,21.73
2022-08-01T18:17:50.479Z,21.62
2022-08-01T18:20:52.959Z,21.50
2022-08-01T18:23:55.440Z,21.47
2022-08-01T18:26:58.772Z,21.34
2022-08-01T18:30:01.487Z,21.11
2022-08-01T18:33:05.347Z,21.04
2022-08-01T18:36:09.789Z,21.04
2022-08-01T18:39:27.194Z,20.98
2022-08-01T18:42:32.659Z,20.93
2022-08-01T18:45:39.529Z,20.62
2022-08-01T18:48:46.163Z,20.38
2022-08-01T18:51:48.678Z,20.11
2022-08-01T18:54:51.734Z,19.89
2022-08-01T18:57:54.193Z,19.74
2022-08-01T19:00:56.747Z,19.58
2022-08-01T19:04:00.558Z,19.45
2022-08-01T19:07:03.373Z,19.28
2022-08-01T19:10:06.641Z,19.14
2022-08-01T19:13:09.872Z,19.05
2022-08-01T19:16:13.056Z,18.99
2022-08-01T19:19:27.592Z,18.85
2022-08-01T19:22:30.597Z,18.72
2022-08-01T19:25:33.249Z,18.68
2022-08-01T19:28:59.021Z,18.68
2022-08-01T19:32:03.007Z,18.65
2022-08-01T19:35:11.161Z,18.50
2022-08-01T19:38:15.169Z,18.39
2022-08-01T19:41:18.690Z,18.30
2022-08-01T19:44:23.721Z,18.10
2022-08-01T19:47:26.331Z,17.92
2022-08-01T19:50:52.231Z,17.80
2022-08-01T19:53:56.339Z,17.63
2022-08-01T19:57:01.750Z,17.56
2022-08-01T20:00:05.529Z,17.52
2022-08-01T20:03:08.524Z,17.41
2022-08-01T20:06:12.445Z,17.32
2022-08-01T20:09:15.129Z,17.17
2022-08-01T20:12:21.561Z,16.95
2022-08-01T20:15:25.627Z,16.73
2022-08-01T20:18:28.084Z,16.54
2022-08-01T20:21:33.838Z,16.39
2022-08-01T20:24:41.308Z,16.28
2022-08-01T20:27:47.986Z,16.18
2022-08-01T20:30:55.725Z,16.07
2022-08-01T20:34:01.206Z,15.97
2022-08-01T20:37:12.411Z,15.87
2022-08-01T20:40:17.313Z,15.82
2022-08-01T20:43:26.117Z,15.75
2022-08-01T20:46:29.771Z,15.72
2022-08-01T20:49:33.142Z,15.67
2022-08-01T20:52:36.997Z,15.56
2022-08-01T20:55:47.315Z,15.47
2022-08-01T20:59:01.258Z,15.38
2022-08-01T21:02:12.009Z,15.34
2022-08-01T21:05:23.281Z,15.30
2022-08-01T21:08:36.206Z,15.23
2022-08-01T21:11:42.565Z,15.13
2022-08-01T21:14:51.485Z,15.06
2022-08-01T21:18:02.251Z,14.90
2022-08-01T21:21:10.189Z,14.80
2022-08-01T21:24:17.705Z,14.74
2022-08-01T21:27:22.334Z,14.66
2022-08-01T21:30:37.046Z,14.68
2022-08-01T21:33:57.070Z,14.68
2022-08-01T21:37:05.485Z,14.59
2022-08-01T21:40:11.098Z,14.50
2022-08-01T21:43:14.999Z,14.37
2022-08-01T21:46:18.824Z,14.40
2022-08-01T21:49:22.605Z,14.43
2022-08-01T21:52:25.541Z,14.46
2022-08-01T21:55:35.646Z,14.54
2022-08-01T21:58:47.587Z,14.57
2022-08-01T22:01:58.785Z,14.58
2022-08-01T22:05:05.627Z,14.59
2022-08-01T22:08:10.613Z,14.66
2022-08-01T22:11:18.991Z,14.62
2022-08-01T22:14:23.313Z,14.52
2022-08-01T22:17:26.166Z,14.49
2022-08-01T22:20:29.356Z,14.44
2022-08-01T22:23:35.695Z,14.24
2022-08-01T22:26:41.517Z,14.31
2022-08-01T22:29:44.075Z,14.15
2022-08-01T22:33:07.290Z,14.05
2022-08-01T22:36:10.163Z,13.99
2022-08-01T22:39:16.212Z,13.95
2022-08-01T22:42:26.738Z,14.01
2022-08-01T22:45:39.972Z,14.02
2022-08-01T22:48:46.434Z,14.04
2022-08-01T22:51:56.251Z,13.69
2022-08-01T22:55:04.230Z,13.68
2022-08-01T22:58:11.904Z,13.72
2022-08-01T23:01:21.162Z,13.75
2022-08-01T23:04:34.084Z,13.73
2022-08-01T23:07:40.524Z,13.62
2022-08-01T23:10:44.032Z,13.52
2022-08-01T23:13:48.242Z,13.24
2022-08-01T23:16:51.697Z,13.14
2022-08-01T23:19:54.829Z,13.07
2022-08-01T23:22:58.317Z,13.07
2022-08-01T23:26:01.950Z,13.03
2022-08-01T23:29:06.391Z,13.08
2022-08-01T23:32:08.943Z,13.11
2022-08-01T23:35:11.440Z,13.10
2022-08-01T23:38:15.803Z,13.02
2022-08-01T23:41:19.262Z,12.84
2022-08-01T23:44:23.082Z,12.73
2022-08-01T23:47:25.594Z,12.63
2022-08-01T23:50:28.455Z,12.54
2022-08-01T23:53:33.648Z,12.44
2022-08-01T23:56:38.637Z,12.44
2022-08-01T23:59:52.561Z,12.61
